createdAt,value
2022-10-28T00:01:04.572Z,65.10
2022-10-28T00:03:32.981Z,65.10
2022-10-28T00:06:04.496Z,65.10
2022-10-28T00:08:32.892Z,65.20
2022-10-28T00:11:05.087Z,65.20
2022-10-28T00:13:33.221Z,65.10
2022-10-28T00:16:06.613Z,65.10
2022-10-28T00:18:34.635Z,65.20
2022-10-28T00:21:03.164Z,65.20
2022-10-28T00:23:31.241Z,65.20
2022-10-28T00:26:04.844Z,65.20
2022-10-28T00:28:32.913Z,65.20
2022-10-28T00:31:04.595Z,65.30
2022-10-28T00:33:34.310Z,65.20
2022-10-28T00:36:09.393Z,65.20
2022-10-28T00:38:37.486Z,65.30
2022-10-28T00:41:08.435Z,65.40
2022-10-28T00:43:40.904Z,65.50
2022-10-28T00:46:12.964Z,65.60
2022-10-28T00:48:46.907Z,65.70
2022-10-28T00:51:15.189Z,65.80
2022-10-28T00:53:44.089Z,65.80
2022-10-28T00:56:12.713Z,65.80
2022-10-28T00:58:40.834Z,65.70
2022-10-28T01:01:08.971Z,65.80
2022-10-28T01:03:37.863Z,65.90
2022-10-28T01:06:08.105Z,65.90
2022-10-28T01:08:38.286Z,65.90
2022-10-28T01:11:24.245Z,65.90
2022-10-28T01:14:04.441Z,65.80
2022-10-28T01:16:36.735Z,65.70
2022-10-28T01:19:14.539Z,65.80
2022-10-28T01:22:00.299Z,65.90
2022-10-28T01:24:37.349Z,65.90
2022-10-28T01:27:26.411Z,66.00
2022-10-28T01:30:09.292Z,66.00
2022-10-28T01:32:45.359Z,66.10
2022-10-28T01:35:20.277Z,66.10
2022-10-28T01:37:50.650Z,65.90
2022-10-28T01:40:21.916Z,65.80
2022-10-28T01:42:54.677Z,65.80
2022-10-28T01:45:25.936Z,65.70
2022-10-28T01:47:57.883Z,65.70
2022-10-28T01:50:30.972Z,65.60
2022-10-28T01:53:01.468Z,65.70
2022-10-28T01:55:31.458Z,65.60
2022-10-28T01:58:00.578Z,65.50
2022-10-28T02:00:32.273Z,65.80
2022-10-28T02:03:01.708Z,65.20
2022-10-28T02:05:39.638Z,65.50
2022-10-28T02:08:15.451Z,65.60
2022-10-28T02:10:46.606Z,65.90
2022-10-28T02:13:15.644Z,65.90
2022-10-28T02:15:48.157Z,65.90
2022-10-28T02:18:26.211Z,66.10
2022-10-28T02:20:55.300Z,66.20
2022-10-28T02:23:28.466Z,66.30
2022-10-28T02:26:01.789Z,66.30
2022-10-28T02:28:34.177Z,66.30
2022-10-28T02:31:05.147Z,66.20
2022-10-28T02:33:37.018Z,66.30
2022-10-28T02:36:06.551Z,66.40
2022-10-28T02:38:37.377Z,66.50
2022-10-28T02:41:07.430Z,66.50
2022-10-28T02:43:37.527Z,66.40
2022-10-28T02:46:06.121Z,66.50
2022-10-28T02:48:37.103Z,66.50
2022-10-28T02:51:08.708Z,66.60
2022-10-28T02:53:42.812Z,66.70
2022-10-28T02:56:11.226Z,66.70
2022-10-28T02:58:40.227Z,66.80
2022-10-28T03:01:08.928Z,66.90
2022-10-28T03:03:38.550Z,66.80
2022-10-28T03:06:06.728Z,66.80
2022-10-28T03:08:34.878Z,66.80
2022-10-28T03:11:02.887Z,66.50
2022-10-28T03:13:31.022Z,66.40
2022-10-28T03:15:59.077Z,67.10
2022-10-28T03:18:27.355Z,66.60
2022-10-28T03:20:59.002Z,66.60
2022-10-28T03:23:27.277Z,66.70
2022-10-28T03:25:55.308Z,66.80
2022-10-28T03:28:23.377Z,66.50
2022-10-28T03:30:51.445Z,66.60
2022-10-28T03:33:19.450Z,66.60
2022-10-28T03:35:47.615Z,66.60
2022-10-28T03:38:17.012Z,66.50
2022-10-28T03:40:48.664Z,66.40
2022-10-28T03:43:16.826Z,66.40
2022-10-28T03:45:44.925Z,66.40
2022-10-28T03:48:12.952Z,66.40
2022-10-28T03:50:41.021Z,66.60
2022-10-28T03:53:09.197Z,66.60
2022-10-28T03:55:38.734Z,66.60
2022-10-28T03:58:06.847Z,66.60
2022-10-28T04:00:34.882Z,66.60
2022-10-28T04:03:02.937Z,66.50
2022-10-28T04:05:30.926Z,66.40
2022-10-28T04:07:58.940Z,66.40
2022-10-28T04:10:27.006Z,66.50
2022-10-28T04:13:00.290Z,66.50
2022-10-28T04:15:28.309Z,66.60
2022-10-28T04:17:56.380Z,66.70
2022-10-28T04:20:24.513Z,66.60
2022-10-28T04:22:56.090Z,66.50
2022-10-28T04:25:26.100Z,66.60
2022-10-28T04:27:54.519Z,66.70
2022-10-28T04:30:24.481Z,66.80
2022-10-28T04:32:52.441Z,66.70
2022-10-28T04:35:20.527Z,66.70
2022-10-28T04:37:48.612Z,66.80
2022-10-28T04:40:16.740Z,66.70
2022-10-28T04:42:44.775Z,66.80
2022-10-28T04:45:12.825Z,66.70
2022-10-28T04:47:42.376Z,66.70
2022-10-28T04:50:10.591Z,66.70
2022-10-28T04:52:38.675Z,66.80
2022-10-28T04:55:09.415Z,66.80
2022-10-28T04:57:37.415Z,66.90
2022-10-28T05:00:05.944Z,66.80
2022-10-28T05:02:33.992Z,66.70
2022-10-28T05:05:06.216Z,66.60
2022-10-28T05:07:34.258Z,66.70
2022-10-28T05:10:02.407Z,66.90
2022-10-28T05:12:30.463Z,66.90
2022-10-28T05:14:58.536Z,67.00
2022-10-28T05:17:26.662Z,67.10
2022-10-28T05:19:54.775Z,67.10
2022-10-28T05:22:24.171Z,67.00
2022-10-28T05:24:52.238Z,67.00
2022-10-28T05:27:20.363Z,67.10
2022-10-28T05:29:48.443Z,67.20
2022-10-28T05:32:16.417Z,67.30
2022-10-28T05:34:46.561Z,67.30
2022-10-28T05:37:14.542Z,67.30
2022-10-28T05:39:43.945Z,67.40
2022-10-28T05:42:12.003Z,67.40
2022-10-28T05:44:40.156Z,67.40
2022-10-28T05:47:08.283Z,67.40
2022-10-28T05:49:36.442Z,67.30
2022-10-28T05:52:07.014Z,67.20
2022-10-28T05:54:35.134Z,67.20
2022-10-28T05:57:04.717Z,67.20
2022-10-28T05:59:32.721Z,67.50
2022-10-28T06:02:00.806Z,67.00
2022-10-28T06:04:29.777Z,67.00
2022-10-28T06:06:58.050Z,67.10
2022-10-28T06:09:28.471Z,67.20
2022-10-28T06:11:54.999Z,66.90
2022-10-28T06:14:26.555Z,66.90
2022-10-28T06:16:54.682Z,67.00
2022-10-28T06:19:22.840Z,66.90
2022-10-28T06:21:50.853Z,66.80
2022-10-28T06:24:18.914Z,67.00
2022-10-28T06:26:47.501Z,67.00
2022-10-28T06:29:15.611Z,67.10
2022-10-28T06:31:45.052Z,67.20
2022-10-28T06:34:13.107Z,67.20
2022-10-28T06:36:41.089Z,67.20
2022-10-28T06:39:09.205Z,67.30
2022-10-28T06:41:37.229Z,67.30
2022-10-28T06:44:05.448Z,67.20
2022-10-28T06:46:35.108Z,67.10
2022-10-28T06:49:05.176Z,67.10
2022-10-28T06:51:33.541Z,66.90
2022-10-28T06:54:01.574Z,66.90
2022-10-28T06:56:29.639Z,66.80
2022-10-28T06:59:00.130Z,66.70
2022-10-28T07:01:28.304Z,66.60
2022-10-28T07:03:56.517Z,66.40
2022-10-28T07:06:26.041Z,66.30
2022-10-28T07:08:54.129Z,66.00
2022-10-28T07:11:22.218Z,65.90
2022-10-28T07:13:52.542Z,65.90
2022-10-28T07:16:20.582Z,65.50
2022-10-28T07:18:48.631Z,65.10
2022-10-28T07:21:18.476Z,64.80
2022-10-28T07:23:49.971Z,64.40
2022-10-28T07:26:18.036Z,63.90
2022-10-28T07:28:46.041Z,63.80
2022-10-28T07:31:14.128Z,63.60
2022-10-28T07:33:44.562Z,63.60
2022-10-28T07:36:12.933Z,63.80
2022-10-28T07:38:41.029Z,64.10
2022-10-28T07:41:10.932Z,64.20
2022-10-28T07:43:41.040Z,64.40
2022-10-28T07:46:09.855Z,64.60
2022-10-28T07:48:38.309Z,64.70
2022-10-28T07:51:07.789Z,64.90
2022-10-28T07:53:38.407Z,65.00
2022-10-28T07:56:09.630Z,64.30
2022-10-28T07:58:39.167Z,63.90
2022-10-28T08:01:08.813Z,63.80
2022-10-28T08:03:39.490Z,63.60
2022-10-28T08:06:08.457Z,63.30
2022-10-28T08:08:39.178Z,62.60
2022-10-28T08:11:11.032Z,61.90
2022-10-28T08:13:40.774Z,61.90
2022-10-28T08:16:09.375Z,61.50
2022-10-28T08:18:40.650Z,61.00
2022-10-28T08:21:13.185Z,60.50
2022-10-28T08:23:46.600Z,60.70
2022-10-28T08:26:15.116Z,60.80
2022-10-28T08:28:44.817Z,60.50
2022-10-28T08:31:13.207Z,59.90
2022-10-28T08:33:42.346Z,59.60
2022-10-28T08:36:11.287Z,58.70
2022-10-28T08:38:45.746Z,58.60
2022-10-28T08:41:18.868Z,58.70
2022-10-28T08:44:21.662Z,58.20
2022-10-28T08:46:56.517Z,58.00
2022-10-28T08:49:25.215Z,58.20
2022-10-28T08:51:58.019Z,57.80
2022-10-28T08:54:31.976Z,57.70
2022-10-28T08:57:02.408Z,57.60
2022-10-28T08:59:33.630Z,57.70
2022-10-28T09:02:04.260Z,57.30
2022-10-28T09:04:39.609Z,56.80
2022-10-28T09:07:10.753Z,57.10
2022-10-28T09:09:40.140Z,56.50
2022-10-28T09:12:23.254Z,56.40
2022-10-28T09:15:13.133Z,56.40
2022-10-28T09:17:52.501Z,55.80
2022-10-28T09:20:24.942Z,55.90
2022-10-28T09:22:57.998Z,56.10
2022-10-28T09:25:35.645Z,56.40
2022-10-28T09:28:28.223Z,56.10
2022-10-28T09:31:06.732Z,56.00
2022-10-28T09:33:42.322Z,55.40
2022-10-28T09:36:14.155Z,54.80
2022-10-28T09:38:42.613Z,54.40
2022-10-28T09:41:17.240Z,54.10
2022-10-28T09:43:51.640Z,54.00
2022-10-28T09:46:26.234Z,54.80
2022-10-28T09:48:55.696Z,54.40
2022-10-28T09:51:27.984Z,53.70
2022-10-28T09:53:59.397Z,53.00
2022-10-28T09:56:30.505Z,53.00
2022-10-28T09:59:00.085Z,52.30
2022-10-28T10:01:32.185Z,52.40
2022-10-28T10:04:00.755Z,52.00
2022-10-28T10:06:30.082Z,53.00
2022-10-28T10:08:58.256Z,52.30
2022-10-28T10:11:29.095Z,52.20
2022-10-28T10:14:01.233Z,52.10
2022-10-28T10:16:40.848Z,52.10
2022-10-28T10:19:12.081Z,51.80
2022-10-28T10:21:46.332Z,51.80
2022-10-28T10:24:24.493Z,51.30
2022-10-28T10:26:53.360Z,51.50
2022-10-28T10:29:24.200Z,51.00
2022-10-28T10:32:16.198Z,50.40
2022-10-28T10:34:47.890Z,50.20
2022-10-28T10:37:22.269Z,50.30
2022-10-28T10:40:04.929Z,50.30
2022-10-28T10:42:42.520Z,50.00
2022-10-28T10:45:24.206Z,50.10
2022-10-28T10:48:07.323Z,49.70
2022-10-28T10:50:38.037Z,49.00
2022-10-28T10:53:06.654Z,48.80
2022-10-28T10:55:36.172Z,49.00
2022-10-28T10:58:05.968Z,49.10
2022-10-28T11:00:39.830Z,49.10
2022-10-28T11:03:14.870Z,48.90
2022-10-28T11:06:05.309Z,48.20
2022-10-28T11:08:42.713Z,47.70
2022-10-28T11:11:14.622Z,47.70
2022-10-28T11:13:46.099Z,48.30
2022-10-28T11:16:22.827Z,48.70
2022-10-28T11:18:52.840Z,48.60
2022-10-28T11:21:35.283Z,48.50
2022-10-28T11:24:18.504Z,48.20
2022-10-28T11:26:55.621Z,47.60
2022-10-28T11:29:24.310Z,47.00
2022-10-28T11:32:24.084Z,46.50
2022-10-28T11:35:07.222Z,46.90
2022-10-28T11:37:51.875Z,46.80
2022-10-28T11:40:32.340Z,46.70
2022-10-28T11:43:07.233Z,46.60
2022-10-28T11:45:40.663Z,46.70
2022-10-28T11:48:23.689Z,46.50
2022-10-28T11:51:08.489Z,46.90
2022-10-28T11:53:51.490Z,47.70
2022-10-28T11:56:27.998Z,48.20
2022-10-28T11:59:03.202Z,48.00
2022-10-28T12:01:38.711Z,47.60
2022-10-28T12:04:10.721Z,47.50
2022-10-28T12:06:54.826Z,47.60
2022-10-28T12:09:26.263Z,47.90
2022-10-28T12:12:01.423Z,48.80
2022-10-28T12:14:34.447Z,48.30
2022-10-28T12:17:06.626Z,48.90
2022-10-28T12:19:37.781Z,49.10
2022-10-28T12:22:07.806Z,49.30
2022-10-28T12:24:36.691Z,49.80
2022-10-28T12:27:11.409Z,49.40
2022-10-28T12:29:43.748Z,49.60
2022-10-28T12:32:15.001Z,49.30
2022-10-28T12:34:47.789Z,49.60
2022-10-28T12:37:19.405Z,50.00
2022-10-28T12:39:50.268Z,50.50
2022-10-28T12:42:22.125Z,49.60
2022-10-28T12:44:53.588Z,49.90
2022-10-28T12:47:25.039Z,49.80
2022-10-28T12:49:58.708Z,49.50
2022-10-28T12:52:34.056Z,49.70
2022-10-28T12:55:03.821Z,49.40
2022-10-28T12:57:35.346Z,49.30
2022-10-28T13:00:05.646Z,48.70
2022-10-28T13:02:36.817Z,48.30
2022-10-28T13:05:05.629Z,49.10
2022-10-28T13:07:40.645Z,48.80
2022-10-28T13:10:18.636Z,48.40
2022-10-28T13:13:01.781Z,48.60
2022-10-28T13:15:50.857Z,48.90
2022-10-28T13:18:29.535Z,48.30
2022-10-28T13:21:04.988Z,49.00
2022-10-28T13:23:36.087Z,49.60
2022-10-28T13:26:08.889Z,50.10
2022-10-28T13:28:45.992Z,50.00
2022-10-28T13:31:15.500Z,49.60
2022-10-28T13:33:49.122Z,49.40
2022-10-28T13:36:18.627Z,49.30
2022-10-28T13:38:56.948Z,48.50
2022-10-28T13:41:33.123Z,49.20
2022-10-28T13:44:18.882Z,48.40
2022-10-28T13:47:17.024Z,48.50
2022-10-28T13:49:59.923Z,49.20
2022-10-28T13:52:29.423Z,49.20
2022-10-28T13:54:58.914Z,49.20
2022-10-28T13:57:33.209Z,48.50
2022-10-28T14:00:02.121Z,49.20
2022-10-28T14:02:37.348Z,48.80
2022-10-28T14:05:06.809Z,49.40
2022-10-28T14:07:37.240Z,49.40
2022-10-28T14:10:20.380Z,49.50
2022-10-28T14:12:52.252Z,49.80
2022-10-28T14:15:28.186Z,50.10
2022-10-28T14:18:09.863Z,50.20
2022-10-28T14:20:45.317Z,49.90
2022-10-28T14:23:32.130Z,50.30
2022-10-28T14:26:04.446Z,50.40
2022-10-28T14:28:52.171Z,50.80
2022-10-28T14:31:40.746Z,50.70
2022-10-28T14:34:27.534Z,50.70
2022-10-28T14:37:01.171Z,50.80
2022-10-28T14:39:36.957Z,51.00
2022-10-28T14:42:15.648Z,51.40
2022-10-28T14:44:59.810Z,51.60
2022-10-28T14:47:48.439Z,51.80
2022-10-28T14:50:23.330Z,52.00
2022-10-28T14:52:54.848Z,52.10
2022-10-28T14:55:27.744Z,52.20
2022-10-28T15:01:17.730Z,52.30
2022-10-28T15:03:48.647Z,52.80
2022-10-28T15:06:32.585Z,52.80
2022-10-28T15:09:12.018Z,53.10
2022-10-28T15:11:44.767Z,52.80
2022-10-28T15:14:25.774Z,52.70
2022-10-28T15:16:58.354Z,52.60
2022-10-28T15:19:30.690Z,52.60
2022-10-28T15:22:03.602Z,52.80
2022-10-28T15:24:34.571Z,52.80
2022-10-28T15:27:02.864Z,52.80
2022-10-28T15:29:33.818Z,52.90
2022-10-28T15:32:16.243Z,52.90
2022-10-28T15:34:47.401Z,52.90
2022-10-28T15:37:18.998Z,53.20
2022-10-28T15:39:48.354Z,53.40
2022-10-28T15:42:38.212Z,53.40
2022-10-28T15:45:07.719Z,53.50
2022-10-28T15:47:38.113Z,53.50
2022-10-28T15:50:18.991Z,53.70
2022-10-28T15:52:48.218Z,53.70
2022-10-28T15:55:41.335Z,53.90
2022-10-28T15:58:32.316Z,53.90
2022-10-28T16:01:00.541Z,54.20
2022-10-28T16:03:41.400Z,54.30
2022-10-28T16:06:23.604Z,54.30
2022-10-28T16:09:00.397Z,54.40
2022-10-28T16:11:28.824Z,54.50
2022-10-28T16:13:57.043Z,54.70
2022-10-28T16:16:26.064Z,54.80
2022-10-28T16:19:01.692Z,54.90
2022-10-28T16:21:29.735Z,55.00
2022-10-28T16:23:59.053Z,55.30
2022-10-28T16:26:27.664Z,55.30
2022-10-28T16:28:56.375Z,55.20
2022-10-28T16:31:26.189Z,55.30
2022-10-28T16:33:55.691Z,55.40
2022-10-28T16:36:23.826Z,55.50
2022-10-28T16:38:51.824Z,55.60
2022-10-28T16:41:20.291Z,55.70
2022-10-28T16:43:48.395Z,55.70
2022-10-28T16:46:16.506Z,55.80
2022-10-28T16:48:44.546Z,55.80
2022-10-28T16:51:16.197Z,56.00
2022-10-28T16:53:47.509Z,56.20
2022-10-28T16:56:15.963Z,56.30
2022-10-28T16:58:44.933Z,56.50
2022-10-28T17:01:13.262Z,56.40
2022-10-28T17:03:41.373Z,56.60
2022-10-28T17:06:10.475Z,56.70
2022-10-28T17:09:01.734Z,56.50
2022-10-28T17:11:33.077Z,56.60
2022-10-28T17:14:01.080Z,56.60
2022-10-28T17:16:29.184Z,56.60
2022-10-28T17:18:59.603Z,56.50
2022-10-28T17:21:27.625Z,56.50
2022-10-28T17:23:57.085Z,56.50
2022-10-28T17:26:25.141Z,56.60
2022-10-28T17:28:53.388Z,56.60
2022-10-28T17:31:25.190Z,56.70
2022-10-28T17:33:54.403Z,56.90
2022-10-28T17:36:23.733Z,56.90
2022-10-28T17:38:51.777Z,56.90
2022-10-28T17:41:21.381Z,57.10
2022-10-28T17:43:49.378Z,57.20
2022-10-28T17:46:17.425Z,57.20
2022-10-28T17:48:45.439Z,57.20
2022-10-28T17:51:13.818Z,57.30
2022-10-28T17:53:42.065Z,57.30
2022-10-28T17:56:10.569Z,57.30
2022-10-28T17:58:40.186Z,57.30
2022-10-28T18:01:09.522Z,57.20
2022-10-28T18:03:39.211Z,57.10
2022-10-28T18:06:11.729Z,57.00
2022-10-28T18:08:40.924Z,57.10
2022-10-28T18:11:09.707Z,57.10
2022-10-28T18:13:38.294Z,57.30
2022-10-28T18:16:08.819Z,57.30
2022-10-28T18:18:41.094Z,57.30
2022-10-28T18:21:11.083Z,57.10
2022-10-28T18:23:39.220Z,57.10
2022-10-28T18:26:08.127Z,57.20
2022-10-28T18:28:36.776Z,57.20
2022-10-28T18:31:05.440Z,57.10
2022-10-28T18:33:35.566Z,57.20
2022-10-28T18:36:04.470Z,57.30
2022-10-28T18:38:33.413Z,57.30
2022-10-28T18:41:01.464Z,57.30
2022-10-28T18:43:29.586Z,57.30
2022-10-28T18:46:01.150Z,57.40
2022-10-28T18:48:29.229Z,57.40
2022-10-28T18:51:01.859Z,57.40
2022-10-28T18:53:29.883Z,57.50
2022-10-28T18:56:00.662Z,57.60
2022-10-28T18:58:28.740Z,57.60
2022-10-28T19:01:04.154Z,57.60
2022-10-28T19:03:32.277Z,57.60
2022-10-28T19:06:05.647Z,57.60
2022-10-28T19:08:33.663Z,57.70
2022-10-28T19:11:02.234Z,57.60
2022-10-28T19:13:30.375Z,57.60
2022-10-28T19:15:59.591Z,57.50
2022-10-28T19:18:27.722Z,57.50
2022-10-28T19:21:03.131Z,57.40
2022-10-28T19:23:35.220Z,57.30
2022-10-28T19:26:04.177Z,57.20
2022-10-28T19:28:32.369Z,57.30
2022-10-28T19:31:01.270Z,57.30
2022-10-28T19:33:29.442Z,57.30
2022-10-28T19:36:01.580Z,57.30
2022-10-28T19:38:31.697Z,57.30
2022-10-28T19:41:08.308Z,57.30
2022-10-28T19:43:36.524Z,57.20
2022-10-28T19:46:05.303Z,57.00
2022-10-28T19:48:35.377Z,57.00
2022-10-28T19:51:05.914Z,56.90
2022-10-28T19:53:34.014Z,56.90
2022-10-28T19:56:02.864Z,56.90
2022-10-28T19:58:32.806Z,56.80
2022-10-28T20:01:01.862Z,56.60
2022-10-28T20:03:34.279Z,56.60
2022-10-28T20:06:05.046Z,56.60
2022-10-28T20:08:34.312Z,56.60
2022-10-28T20:11:05.730Z,56.60
2022-10-28T20:13:35.711Z,56.70
2022-10-28T20:16:04.618Z,56.80
2022-10-28T20:18:33.216Z,56.80
2022-10-28T20:21:05.272Z,56.80
2022-10-28T20:23:33.447Z,56.90
2022-10-28T20:26:01.512Z,56.70
2022-10-28T20:28:29.697Z,56.60
2022-10-28T20:31:03.005Z,56.50
2022-10-28T20:33:31.687Z,56.60
2022-10-28T20:36:00.096Z,56.70
2022-10-28T20:38:28.426Z,56.70
2022-10-28T20:41:00.154Z,56.70
2022-10-28T20:43:29.697Z,56.60
2022-10-28T20:46:00.727Z,56.70
2022-10-28T20:48:30.730Z,56.70
2022-10-28T20:50:59.656Z,56.70
2022-10-28T20:53:31.247Z,56.70
2022-10-28T20:55:59.368Z,56.70
2022-10-28T20:58:29.087Z,56.80
2022-10-28T21:01:02.273Z,56.80
2022-10-28T21:03:31.810Z,56.90
2022-10-28T21:06:00.192Z,56.90
2022-10-28T21:08:28.279Z,57.10
2022-10-28T21:11:02.225Z,57.20
2022-10-28T21:13:30.285Z,57.30
2022-10-28T21:16:00.879Z,57.40
2022-10-28T21:18:28.996Z,57.40
2022-10-28T21:21:01.416Z,57.50
2022-10-28T21:23:30.059Z,57.60
2022-10-28T21:25:59.872Z,57.70
2022-10-28T21:28:28.798Z,57.80
2022-10-28T21:31:00.023Z,57.70
2022-10-28T21:33:28.491Z,57.90
2022-10-28T21:35:57.364Z,58.00
2022-10-28T21:38:27.620Z,58.00
2022-10-28T21:40:59.620Z,58.20
2022-10-28T21:43:28.864Z,58.20
2022-10-28T21:45:59.297Z,58.30
2022-10-28T21:48:28.094Z,58.50
2022-10-28T21:50:57.118Z,58.70
2022-10-28T21:53:27.464Z,58.80
2022-10-28T21:56:03.827Z,58.70
2022-10-28T21:58:36.423Z,58.80
2022-10-28T22:01:06.582Z,58.70
2022-10-28T22:03:34.807Z,58.80
2022-10-28T22:06:03.292Z,58.80
2022-10-28T22:08:33.168Z,58.70
2022-10-28T22:11:06.568Z,58.80
2022-10-28T22:13:35.429Z,58.90
2022-10-28T22:16:08.200Z,59.10
2022-10-28T22:18:37.826Z,59.20
2022-10-28T22:21:07.536Z,59.20
2022-10-28T22:23:37.232Z,59.20
2022-10-28T22:26:08.166Z,59.10
2022-10-28T22:28:36.736Z,59.00
2022-10-28T22:31:07.277Z,59.00
2022-10-28T22:33:35.732Z,59.10
2022-10-28T22:36:06.125Z,59.00
2022-10-28T22:38:36.325Z,59.00
2022-10-28T22:41:08.580Z,58.90
2022-10-28T22:43:36.900Z,58.90
2022-10-28T22:46:07.710Z,59.10
2022-10-28T22:48:36.046Z,59.10
2022-10-28T22:51:04.844Z,59.20
2022-10-28T22:53:33.425Z,59.30
2022-10-28T22:56:03.125Z,59.30
2022-10-28T22:58:31.319Z,59.10
2022-10-28T23:01:07.409Z,59.10
2022-10-28T23:03:40.284Z,59.00
2022-10-28T23:06:12.235Z,59.00
2022-10-28T23:08:41.478Z,59.10
2022-10-28T23:11:11.914Z,59.20
2022-10-28T23:13:40.439Z,59.10
2022-10-28T23:16:10.861Z,59.10
2022-10-28T23:18:39.462Z,59.10
2022-10-28T23:21:10.788Z,59.20
2022-10-28T23:23:39.102Z,59.20
2022-10-28T23:26:07.960Z,59.30
2022-10-28T23:28:37.549Z,59.30
2022-10-28T23:31:06.347Z,59.30
2022-10-28T23:33:36.805Z,59.20
2022-10-28T23:36:07.511Z,59.00
2022-10-28T23:38:35.704Z,58.70
2022-10-28T23:41:07.939Z,58.70
2022-10-28T23:43:37.926Z,58.70
2022-10-28T23:46:06.430Z,58.60
2022-10-28T23:48:34.493Z,58.80
2022-10-28T23:51:05.433Z,58.80
2022-10-28T23:53:33.755Z,58.80
2022-10-28T23:56:01.991Z,58.90
2022-10-28T23:58:30.253Z,59.00
